Time;durP1;ratioP1;P1;durP2;ratioP2;P2;SDS_P1;SDS_P2;PMS_P1;PMS_P2;Temp;Humidity;BMP_temperature;BMP_pressure;BME280_temperature;BME280_humidity;BME280_pressure;Samples;Min_cycle;Max_cycle;Signal;HPM_P1;HPM_P2
2022/04/04 00:00:41;;;;;;;15.10;7.10;;;;;;;2.91;42.65;99869.69;5037389;28;20461;-72
2022/04/04 00:03:10;;;;;;;12.57;5.50;;;;;;;2.89;42.91;99864.53;5036208;28;20120;-75
2022/04/04 00:05:38;;;;;;;13.45;6.68;;;;;;;2.86;42.93;99860.31;5036167;28;20427;-73
2022/04/04 00:08:05;;;;;;;11.40;5.65;;;;;;;2.86;42.84;99868.16;5038054;28;20041;-73
2022/04/04 00:10:32;;;;;;;14.93;6.55;;;;;;;2.83;42.80;99857.00;5036692;28;20088;-75
2022/04/04 00:12:59;;;;;;;16.65;6.78;;;;;;;2.82;42.72;99863.13;5036286;28;20111;-76
2022/04/04 00:15:27;;;;;;;14.10;5.82;;;;;;;2.80;43.00;99857.97;5039295;28;20128;-73
2022/04/04 00:17:54;;;;;;;15.23;6.20;;;;;;;2.78;42.81;99853.75;5037845;28;20041;-74
2022/04/04 00:20:23;;;;;;;9.00;4.72;;;;;;;2.77;42.76;99850.28;5035510;28;20051;-73
2022/04/04 00:22:50;;;;;;;18.95;7.30;;;;;;;2.75;42.75;99853.91;5038226;28;20068;-75
2022/04/04 00:25:17;;;;;;;19.95;8.52;;;;;;;2.69;42.77;99842.00;5039221;28;20049;-71
2022/04/04 00:27:45;;;;;;;19.13;7.85;;;;;;;2.70;42.83;99848.03;5030340;28;20046;-74
2022/04/04 00:30:12;;;;;;;20.25;7.55;;;;;;;2.69;43.04;99844.59;5037135;28;20043;-77
2022/04/04 00:32:39;;;;;;;14.23;7.93;;;;;;;2.68;42.87;99840.28;5043826;28;20081;-73
2022/04/04 00:35:06;;;;;;;24.90;9.80;;;;;;;2.67;42.77;99843.84;5045990;28;20668;-72
2022/04/04 00:37:37;;;;;;;22.98;11.15;;;;;;;2.66;43.08;99836.91;5045559;28;20045;-73
2022/04/04 00:40:05;;;;;;;22.15;10.20;;;;;;;2.68;42.97;99835.06;5041206;28;20053;-75
2022/04/04 00:42:32;;;;;;;23.60;10.40;;;;;;;2.70;42.92;99833.25;5047227;28;20092;-76
2022/04/04 00:44:59;;;;;;;20.85;9.32;;;;;;;2.74;42.80;99833.94;5047341;28;20037;-73
2022/04/04 00:47:26;;;;;;;20.75;8.88;;;;;;;2.80;42.66;99826.69;5046682;28;20123;-77
2022/04/04 00:49:53;;;;;;;17.75;8.65;;;;;;;2.85;42.56;99832.53;5046841;28;20103;-75
2022/04/04 00:52:20;;;;;;;16.48;9.82;;;;;;;2.93;42.82;99831.31;5046524;28;20077;-73
2022/04/04 00:54:49;;;;;;;16.00;7.85;;;;;;;2.99;42.65;99825.78;5046347;28;20057;-76
2022/04/04 00:57:18;;;;;;;14.55;7.38;;;;;;;3.06;42.37;99821.97;5047426;28;20128;-76
2022/04/04 00:59:46;;;;;;;13.10;7.15;;;;;;;3.13;42.27;99814.69;5045453;28;20045;-73
2022/04/04 01:02:13;;;;;;;13.43;5.82;;;;;;;3.18;42.32;99818.78;5046905;28;20144;-74
2022/04/04 01:04:41;;;;;;;13.20;6.38;;;;;;;3.22;42.27;99812.50;5047820;28;20132;-74
2022/04/04 01:07:08;;;;;;;13.70;5.40;;;;;;;3.27;41.99;99814.88;5047709;28;20111;-74
2022/04/04 01:09:36;;;;;;;13.88;6.15;;;;;;;3.28;42.31;99807.88;5047972;28;20132;-78
2022/04/04 01:12:07;;;;;;;12.75;5.72;;;;;;;3.35;42.26;99801.44;5047703;28;20037;-78
2022/04/04 01:14:35;;;;;;;11.20;6.97;;;;;;;3.41;42.07;99803.75;5047297;28;20049;-74
2022/04/04 01:17:02;;;;;;;16.65;6.18;;;;;;;3.45;41.89;99800.06;5046205;28;20040;-76
2022/04/04 01:19:29;;;;;;;11.90;5.25;;;;;;;3.48;42.07;99794.69;5047438;28;20045;-74
2022/04/04 01:21:56;;;;;;;12.27;6.85;;;;;;;3.52;41.95;99798.81;5045987;28;20135;-74
2022/04/04 01:24:25;;;;;;;12.70;6.53;;;;;;;3.55;41.95;99792.63;5053454;28;20420;-74
2022/04/04 01:26:54;;;;;;;16.30;6.85;;;;;;;3.52;42.02;99790.16;5048553;28;20136;-76
2022/04/04 01:29:22;;;;;;;9.38;5.43;;;;;;;3.56;42.12;99782.06;5047870;28;20056;-75
2022/04/04 01:31:49;;;;;;;11.68;5.63;;;;;;;3.58;41.96;99775.03;5047085;28;20139;-75
2022/04/04 01:34:18;;;;;;;13.55;6.55;;;;;;;3.62;42.02;99767.88;5044484;28;20403;-75
2022/04/04 01:36:45;;;;;;;10.90;5.97;;;;;;;3.60;41.94;99765.34;5051000;28;20059;-76
2022/04/04 01:39:13;;;;;;;12.88;6.03;;;;;;;3.53;42.27;99761.38;5046009;28;20059;-72
2022/04/04 01:41:41;;;;;;;7.57;4.38;;;;;;;3.42;42.39;99754.06;5045782;28;20048;-70
2022/04/04 01:44:09;;;;;;;9.73;4.60;;;;;;;3.30;42.69;99759.91;5045540;28;20060;-72
2022/04/04 01:46:36;;;;;;;8.30;3.95;;;;;;;3.18;42.74;99761.34;5045387;28;20681;-74
2022/04/04 01:49:05;;;;;;;13.65;5.43;;;;;;;3.06;43.09;99756.75;5046017;28;20045;-73
2022/04/04 01:51:33;;;;;;;15.63;6.50;;;;;;;2.98;43.31;99751.91;5045160;28;20123;-73
2022/04/04 01:54:01;;;;;;;12.65;6.78;;;;;;;2.89;43.32;99754.16;5045594;28;20500;-73
2022/04/04 01:56:28;;;;;;;11.95;5.78;;;;;;;2.86;43.49;99760.34;5045805;28;20049;-71
2022/04/04 01:58:59;;;;;;;12.80;6.07;;;;;;;2.80;43.68;99748.44;5043543;28;20224;-71
2022/04/04 02:01:28;;;;;;;9.77;6.93;;;;;;;2.75;43.79;99763.47;5044961;28;20049;-72
2022/04/04 02:03:57;;;;;;;14.63;6.07;;;;;;;2.73;43.63;99760.09;5026375;28;20091;-73
2022/04/04 02:06:25;;;;;;;13.13;6.95;;;;;;;2.67;43.98;99757.78;5042773;28;20485;-72
2022/04/04 02:08:52;;;;;;;14.60;5.93;;;;;;;2.64;43.92;99750.94;5044478;28;20554;-74
2022/04/04 02:11:23;;;;;;;12.38;6.47;;;;;;;2.63;44.11;99754.47;5044655;28;20560;-71
2022/04/04 02:13:50;;;;;;;10.32;7.68;;;;;;;2.59;44.10;99758.16;5043336;28;20051;-74
2022/04/04 02:16:18;;;;;;;11.52;6.40;;;;;;;2.60;44.32;99748.56;5044342;28;20041;-73
2022/04/04 02:18:46;;;;;;;11.32;5.68;;;;;;;2.56;44.04;99753.09;4992879;28;20049;-72
2022/04/04 02:21:13;;;;;;;7.57;4.90;;;;;;;2.57;44.10;99743.50;5043435;28;20061;-73
2022/04/04 02:23:39;;;;;;;11.18;6.50;;;;;;;2.54;44.41;99741.88;5044971;28;20049;-72
2022/04/04 02:26:07;;;;;;;13.43;6.35;;;;;;;2.52;44.44;99737.66;5044648;28;20087;-75
2022/04/04 02:28:34;;;;;;;11.43;5.22;;;;;;;2.52;44.37;99743.72;5043827;28;20052;-72
2022/04/04 02:31:02;;;;;;;15.45;5.80;;;;;;;2.51;44.39;99739.41;5044132;28;20041;-74
2022/04/04 02:33:31;;;;;;;10.75;6.05;;;;;;;2.48;44.43;99739.56;5044871;28;20127;-73
2022/04/04 02:35:58;;;;;;;9.60;5.97;;;;;;;2.46;44.42;99742.22;5043121;28;20148;-73
2022/04/04 02:38:27;;;;;;;12.20;6.55;;;;;;;2.43;44.53;99736.31;5044736;28;20076;-74
2022/04/04 02:40:55;;;;;;;13.38;5.97;;;;;;;2.39;45.05;99735.59;5045684;28;20048;-75
2022/04/04 02:43:22;;;;;;;14.60;6.65;;;;;;;2.39;44.80;99730.41;5044880;28;20045;-75
2022/04/04 02:45:50;;;;;;;11.60;6.85;;;;;;;2.38;44.94;99736.53;5045308;28;20051;-74
2022/04/04 02:48:17;;;;;;;11.98;5.85;;;;;;;2.33;45.29;99725.50;5044330;28;20556;-73
2022/04/04 02:50:46;;;;;;;11.00;5.68;;;;;;;2.33;45.10;99730.69;5044087;28;20048;-75
2022/04/04 02:53:14;;;;;;;7.97;6.15;;;;;;;2.30;45.28;99730.84;5045943;28;20053;-76
2022/04/04 02:58:25;;;;;;;18.77;9.68;;;;;;;2.26;45.54;99713.66;5046031;28;20409;-75
2022/04/04 03:00:52;;;;;;;20.70;7.80;;;;;;;2.26;45.51;99711.06;5028723;28;20045;-75
2022/04/04 03:03:19;;;;;;;18.58;8.88;;;;;;;2.22;45.52;99714.72;5045675;28;20053;-74
2022/04/04 03:05:48;;;;;;;12.40;9.05;;;;;;;2.22;45.85;99712.13;5044093;28;20134;-74
2022/04/04 03:08:14;;;;;;;14.80;7.88;;;;;;;2.22;45.62;99704.31;5046016;28;20695;-74
2022/04/04 03:10:41;;;;;;;15.68;8.13;;;;;;;2.23;45.53;99706.84;5044058;28;20045;-73
2022/04/04 03:13:09;;;;;;;10.65;6.57;;;;;;;2.23;45.56;99708.59;5044631;28;20207;-74
2022/04/04 03:15:37;;;;;;;11.13;6.43;;;;;;;2.22;45.71;99699.09;5044445;28;20128;-74
2022/04/04 03:18:05;;;;;;;12.30;6.75;;;;;;;2.28;45.82;99712.66;5044847;28;20118;-74
2022/04/04 03:20:34;;;;;;;15.48;8.30;;;;;;;2.34;45.82;99706.34;5046032;28;20155;-74
2022/04/04 03:23:02;;;;;;;13.18;7.45;;;;;;;2.38;45.90;99707.03;5045497;28;20662;-75
2022/04/04 03:25:30;;;;;;;14.55;6.63;;;;;;;2.44;46.00;99712.78;5045114;28;20129;-75
2022/04/04 03:27:58;;;;;;;10.88;6.13;;;;;;;2.51;45.82;99710.75;5049179;28;20048;-73
2022/04/04 03:30:27;;;;;;;15.25;8.25;;;;;;;2.56;45.82;99694.88;5049563;28;20045;-73
2022/04/04 03:32:57;;;;;;;16.27;7.28;;;;;;;2.62;46.04;99710.22;5050309;28;20053;-72
2022/04/04 03:35:25;;;;;;;14.75;6.68;;;;;;;2.70;45.76;99707.22;5048967;28;20074;-73
2022/04/04 03:37:54;;;;;;;16.27;7.60;;;;;;;2.77;45.77;99703.41;5046842;28;20044;-75
2022/04/04 03:40:23;;;;;;;14.02;7.50;;;;;;;2.81;45.61;99700.59;5048500;28;20041;-74
2022/04/04 03:42:52;;;;;;;11.07;4.97;;;;;;;2.85;45.59;99696.06;5049112;28;20496;-72
2022/04/04 03:45:20;;;;;;;13.90;7.07;;;;;;;2.92;45.74;99705.28;5048496;28;20051;-74
2022/04/04 03:47:48;;;;;;;13.85;6.65;;;;;;;2.96;45.66;99700.75;5049258;28;20107;-74
2022/04/04 03:50:16;;;;;;;17.92;6.70;;;;;;;2.99;45.86;99695.34;5048565;28;20127;-72
2022/04/04 03:52:45;;;;;;;10.73;7.38;;;;;;;3.01;45.86;99688.31;5048120;28;20653;-74
2022/04/04 03:55:13;;;;;;;14.07;7.32;;;;;;;3.05;45.73;99680.25;5048348;28;20049;-74
2022/04/04 03:57:42;;;;;;;18.55;8.00;;;;;;;3.08;45.92;99678.41;5048618;28;20405;-73
2022/04/04 04:00:15;;;;;;;10.32;5.43;;;;;;;3.12;45.82;99686.00;5047707;28;20049;-77
2022/04/04 04:02:42;;;;;;;14.75;9.30;;;;;;;3.12;45.96;99693.00;5048473;28;20049;-72
2022/04/04 04:05:10;;;;;;;21.00;7.30;;;;;;;3.12;46.11;99696.44;5048273;28;20706;-74
2022/04/04 04:07:37;;;;;;;17.55;8.05;;;;;;;3.13;46.13;99694.66;5044766;28;20051;-74
2022/04/04 04:10:05;;;;;;;15.27;8.20;;;;;;;3.16;46.20;99690.13;5048652;28;20136;-75
2022/04/04 04:12:33;;;;;;;16.42;8.75;;;;;;;3.18;46.23;99692.69;5048228;28;20628;-76
2022/04/04 04:15:03;;;;;;;12.02;6.63;;;;;;;3.21;46.22;99688.13;5049626;28;20079;-76
2022/04/04 04:17:31;;;;;;;14.15;7.13;;;;;;;3.25;46.30;99684.44;5050333;28;20052;-73
2022/04/04 04:22:43;;;;;;;14.05;7.97;;;;;;;3.40;46.01;99676.75;5046670;28;20106;-74
2022/04/04 04:25:10;;;;;;;12.05;7.57;;;;;;;3.44;46.08;99683.53;5048125;28;20056;-74
2022/04/04 04:27:37;;;;;;;11.90;6.57;;;;;;;3.51;45.90;99684.03;5047056;28;20049;-75
2022/04/04 04:30:07;;;;;;;15.73;7.97;;;;;;;3.54;45.87;99673.41;5048489;28;20041;-76
2022/04/04 04:32:34;;;;;;;16.27;9.02;;;;;;;3.55;45.96;99673.34;5049380;28;20689;-75
2022/04/04 04:35:01;;;;;;;14.25;8.15;;;;;;;3.57;46.09;99679.31;5051521;28;20099;-75
2022/04/04 04:37:28;;;;;;;13.98;8.65;;;;;;;3.60;46.19;99687.00;5048990;28;20504;-74
2022/04/04 04:39:55;;;;;;;14.45;7.88;;;;;;;3.64;45.95;99687.69;5046237;28;20128;-71
2022/04/04 04:42:22;;;;;;;16.35;8.23;;;;;;;3.64;46.12;99683.31;5046278;28;20131;-74
2022/04/04 04:44:49;;;;;;;14.43;8.57;;;;;;;3.64;46.16;99685.91;5048120;28;20065;-73
2022/04/04 04:47:18;;;;;;;17.73;9.48;;;;;;;3.69;46.18;99684.81;5047227;28;20127;-73
2022/04/04 04:49:48;;;;;;;11.15;7.97;;;;;;;3.74;46.06;99688.88;5045095;28;20048;-75
2022/04/04 04:52:15;;;;;;;18.13;9.68;;;;;;;3.76;46.13;99679.19;5046309;28;20122;-72
2022/04/04 04:54:42;;;;;;;14.40;8.77;;;;;;;3.82;46.07;99678.88;5047894;28;20061;-74
2022/04/04 04:57:09;;;;;;;15.07;7.50;;;;;;;3.87;45.97;99683.00;5049053;28;20060;-79
2022/04/04 04:59:36;;;;;;;14.52;8.02;;;;;;;3.90;46.32;99683.66;5050864;28;20157;-79
2022/04/04 05:02:06;;;;;;;15.75;7.85;;;;;;;3.93;46.12;99685.28;5052710;28;20547;-80
2022/04/04 05:04:34;;;;;;;14.50;7.30;;;;;;;3.96;46.35;99678.13;5048727;28;20049;-81
2022/04/04 05:07:01;;;;;;;15.10;8.48;;;;;;;3.94;46.38;99682.59;5053419;28;20045;-81
2022/04/04 05:09:29;;;;;;;11.63;7.65;;;;;;;3.99;46.53;99682.31;5062802;28;20040;-81
2022/04/04 05:11:56;;;;;;;17.75;8.63;;;;;;;4.06;46.32;99685.47;5051233;28;20125;-77
2022/04/04 05:14:23;;;;;;;14.75;7.85;;;;;;;4.10;46.57;99685.19;5048560;28;20760;-74
2022/04/04 05:16:50;;;;;;;16.95;8.00;;;;;;;4.15;46.53;99680.56;5046542;28;20049;-73
2022/04/04 05:19:19;;;;;;;12.27;6.57;;;;;;;4.32;46.15;99684.88;5044232;28;20127;-73
2022/04/04 05:21:48;;;;;;;11.90;6.93;;;;;;;4.45;46.04;99686.78;5045594;28;20049;-83
2022/04/04 05:24:15;;;;;;;13.70;7.97;;;;;;;4.52;46.03;99677.66;5046226;28;20045;-75
2022/04/04 05:26:43;;;;;;;10.60;7.47;;;;;;;4.60;45.85;99672.84;5044965;28;20108;-76
2022/04/04 05:29:10;;;;;;;14.00;8.00;;;;;;;4.68;45.96;99669.78;5047625;28;20500;-78
2022/04/04 05:31:37;;;;;;;14.60;8.77;;;;;;;4.77;45.86;99671.84;5053688;28;20179;-76
2022/04/04 05:34:05;;;;;;;14.30;9.02;;;;;;;4.86;45.75;99670.50;5054194;28;20137;-77
2022/04/04 05:36:33;;;;;;;13.55;7.32;;;;;;;4.95;45.58;99655.13;5052342;28;20130;-76
2022/04/04 05:39:03;;;;;;;10.50;6.78;;;;;;;4.98;45.73;99667.16;5054084;28;20124;-76
2022/04/04 05:41:30;;;;;;;11.48;7.53;;;;;;;5.05;45.70;99662.41;5052556;28;20053;-76
2022/04/04 05:43:57;;;;;;;16.17;8.68;;;;;;;5.03;45.71;99672.13;5055269;28;20420;-75
2022/04/04 05:46:25;;;;;;;22.60;13.35;;;;;;;4.94;46.39;99673.50;5051068;28;20244;-76
2022/04/04 05:48:52;;;;;;;28.60;11.75;;;;;;;4.91;46.48;99681.53;5049150;28;20053;-76
2022/04/04 05:51:19;;;;;;;18.90;10.40;;;;;;;4.86;46.45;99681.81;5045902;28;20137;-79
2022/04/04 05:53:47;;;;;;;16.30;7.60;;;;;;;4.82;47.02;99674.22;5047352;28;20048;-77
2022/04/04 05:56:16;;;;;;;17.33;8.40;;;;;;;4.84;46.64;99675.81;5050726;28;20461;-76
2022/04/04 05:58:43;;;;;;;19.25;10.48;;;;;;;4.84;46.86;99677.59;5046539;28;20404;-77
2022/04/04 06:01:10;;;;;;;16.85;8.80;;;;;;;4.85;47.09;99687.13;5045894;28;20523;-76
2022/04/04 06:03:37;;;;;;;22.90;12.48;;;;;;;4.85;47.37;99680.13;5042766;28;20140;-79
2022/04/04 06:06:04;;;;;;;16.88;9.68;;;;;;;4.91;47.30;99668.44;5042113;28;20055;-76
2022/04/04 06:08:31;;;;;;;18.15;10.57;;;;;;;4.90;47.74;99683.31;5046307;28;20457;-76
2022/04/04 06:10:59;;;;;;;18.00;11.70;;;;;;;4.84;48.28;99681.03;5044585;28;20691;-78
2022/04/04 06:13:27;;;;;;;15.57;9.18;;;;;;;4.78;48.42;99678.78;5043145;28;20049;-78
2022/04/04 06:15:54;;;;;;;16.88;9.82;;;;;;;4.77;48.51;99670.09;5043513;28;20639;-77
2022/04/04 06:18:21;;;;;;;22.27;11.00;;;;;;;4.77;48.71;99672.72;5044905;28;20484;-76
2022/04/04 06:20:48;;;;;;;25.92;12.48;;;;;;;4.82;48.52;99674.22;5044914;28;20697;-78
2022/04/04 06:23:15;;;;;;;21.50;10.88;;;;;;;4.83;48.52;99670.69;5044458;28;20048;-78
2022/04/04 06:25:43;;;;;;;20.63;11.82;;;;;;;4.84;48.50;99685.44;5044887;28;20725;-77
2022/04/04 06:28:10;;;;;;;20.95;12.23;;;;;;;4.77;48.87;99683.19;5044369;28;20436;-76
2022/04/04 06:30:41;;;;;;;26.08;14.57;;;;;;;4.84;48.78;99673.19;5041660;28;20075;-78
2022/04/04 06:33:09;;;;;;;31.55;13.43;;;;;;;5.02;48.62;99671.28;5044926;28;20084;-79
2022/04/04 06:35:36;;;;;;;21.45;14.82;;;;;;;5.15;48.39;99671.41;5044230;28;20132;-79
2022/04/04 06:38:04;;;;;;;22.70;12.63;;;;;;;5.24;48.19;99664.75;5042768;28;20052;-76
2022/04/04 06:40:31;;;;;;;19.75;14.48;;;;;;;5.38;48.14;99677.03;5044459;28;20140;-79
2022/04/04 06:42:59;;;;;;;26.25;13.82;;;;;;;5.57;47.95;99666.31;5044494;28;20048;-78
2022/04/04 06:45:26;;;;;;;20.63;12.27;;;;;;;5.71;47.61;99666.31;5042851;28;20059;-77
2022/04/04 06:47:55;;;;;;;26.85;15.48;;;;;;;5.79;47.70;99677.13;5043616;28;20067;-78
2022/04/04 06:50:23;;;;;;;20.95;12.73;;;;;;;5.86;47.73;99664.50;5043450;28;20057;-75
2022/04/04 06:52:52;;;;;;;18.50;11.43;;;;;;;5.86;47.98;99662.72;5045294;28;20637;-76
2022/04/04 06:55:20;;;;;;;24.58;11.95;;;;;;;5.99;47.76;99670.66;5045453;28;20137;-77
2022/04/04 06:57:47;;;;;;;27.17;13.88;;;;;;;6.22;47.45;99669.22;5044066;28;20136;-76
2022/04/04 07:00:16;;;;;;;20.23;13.18;;;;;;;6.35;47.16;99664.03;5044552;28;20068;-76
2022/04/04 07:02:45;;;;;;;21.88;10.40;;;;;;;6.41;46.95;99657.53;5044822;28;20060;-76
2022/04/04 07:05:14;;;;;;;16.90;9.60;;;;;;;6.49;47.06;99666.59;5045260;28;20045;-79
2022/04/04 07:07:41;;;;;;;16.35;10.15;;;;;;;6.62;46.94;99657.94;5027901;28;20049;-77
2022/04/04 07:10:10;;;;;;;17.50;11.95;;;;;;;6.59;46.96;99659.00;5044972;28;20580;-76
2022/04/04 07:12:41;;;;;;;21.10;13.57;;;;;;;6.43;47.34;99647.81;5044055;28;20057;-76
2022/04/04 07:15:10;;;;;;;19.70;11.68;;;;;;;6.30;47.69;99653.00;5046386;28;20136;-76
2022/04/04 07:17:38;;;;;;;14.00;8.23;;;;;;;6.24;47.68;99646.34;5028908;28;20053;-76
2022/04/04 07:20:08;;;;;;;14.48;10.55;;;;;;;6.10;48.11;99642.03;5046021;28;20053;-77
2022/04/04 07:22:40;;;;;;;15.18;8.25;;;;;;;6.13;48.21;99635.72;5046296;28;20045;-78
2022/04/04 07:25:09;;;;;;;19.83;12.32;;;;;;;6.17;48.22;99634.59;5047423;28;20572;-75
2022/04/04 07:27:36;;;;;;;24.23;14.82;;;;;;;6.20;48.17;99628.31;5011487;28;20071;-77
2022/04/04 07:30:04;;;;;;;17.17;10.13;;;;;;;6.32;48.11;99636.22;5046602;28;20120;-77
2022/04/04 07:32:31;;;;;;;20.13;12.00;;;;;;;6.46;48.04;99631.84;5047408;28;20096;-77
2022/04/04 07:34:58;;;;;;;17.10;12.23;;;;;;;6.58;47.93;99640.72;5028133;28;20485;-76
2022/04/04 07:37:26;;;;;;;19.13;9.30;;;;;;;6.69;47.86;99631.19;5045805;28;20485;-77
2022/04/04 07:39:56;;;;;;;14.32;11.55;;;;;;;6.82;47.31;99625.13;5047037;28;20544;-79
2022/04/04 07:42:23;;;;;;;16.50;10.85;;;;;;;6.91;47.37;99624.50;5047739;28;20200;-76
2022/04/04 07:44:51;;;;;;;11.88;9.18;;;;;;;7.22;46.83;99614.53;5050837;28;20087;-79
2022/04/04 07:47:18;;;;;;;14.07;9.32;;;;;;;7.86;45.84;99614.44;5056376;28;20128;-78
2022/04/04 07:49:45;;;;;;;18.63;10.68;;;;;;;8.45;44.75;99611.09;5041353;28;20125;-77
2022/04/04 07:52:12;;;;;;;11.73;7.72;;;;;;;8.47;44.47;99617.06;5057094;28;20049;-76
2022/04/04 07:54:40;;;;;;;16.00;9.43;;;;;;;8.07;45.04;99609.44;5054764;28;20136;-77
2022/04/04 07:57:08;;;;;;;13.80;9.68;;;;;;;7.83;45.61;99627.78;5054633;28;20102;-77
2022/04/04 07:59:36;;;;;;;15.68;9.93;;;;;;;7.83;45.76;99619.91;5053113;28;20116;-76
2022/04/04 08:02:03;;;;;;;14.80;9.85;;;;;;;8.02;45.31;99606.28;5054131;28;20118;-75
2022/04/04 08:04:30;;;;;;;13.25;8.85;;;;;;;8.24;45.32;99610.81;5054020;28;20090;-77
2022/04/04 08:06:57;;;;;;;14.07;8.73;;;;;;;8.36;44.93;99614.38;5050819;28;20195;-77
2022/04/04 08:09:26;;;;;;;15.05;9.43;;;;;;;8.38;44.92;99610.66;5053884;28;20092;-75
2022/04/04 08:11:54;;;;;;;13.00;9.38;;;;;;;8.42;44.82;99608.66;5042180;28;20041;-78
2022/04/04 08:14:22;;;;;;;12.75;8.48;;;;;;;8.70;44.49;99604.81;5060730;28;20049;-78
2022/04/04 08:16:50;;;;;;;16.42;9.05;;;;;;;8.92;44.18;99604.03;5061522;28;20064;-78
2022/04/04 08:19:17;;;;;;;20.27;11.90;;;;;;;9.17;43.72;99604.81;5063431;28;20088;-78
2022/04/04 08:21:44;;;;;;;13.57;8.93;;;;;;;9.27;43.35;99600.47;5062156;28;20040;-76
2022/04/04 08:24:12;;;;;;;14.20;8.95;;;;;;;9.94;42.45;99604.06;5062145;28;20305;-77
2022/04/04 08:26:40;;;;;;;11.60;8.20;;;;;;;10.36;41.49;99598.09;5062670;28;20040;-75
2022/04/04 08:29:07;;;;;;;13.65;8.55;;;;;;;10.28;41.31;99586.31;5060958;28;20087;-76
2022/04/04 08:31:36;;;;;;;17.83;10.27;;;;;;;10.01;41.53;99584.13;5061380;28;20075;-78
2022/04/04 08:34:03;;;;;;;11.95;8.38;;;;;;;9.66;42.11;99587.78;5058818;28;20049;-77
2022/04/04 08:36:31;;;;;;;12.10;8.73;;;;;;;9.47;42.56;99583.13;5057348;28;20052;-77
2022/04/04 08:38:58;;;;;;;17.83;9.27;;;;;;;9.67;42.29;99584.19;5059697;28;20032;-77
2022/04/04 08:41:30;;;;;;;10.30;7.32;;;;;;;9.72;41.82;99586.44;5055099;28;20615;-74
2022/04/04 08:44:01;;;;;;;14.10;10.50;;;;;;;9.79;41.83;99579.72;5050896;28;20099;-77
2022/04/04 08:46:29;;;;;;;13.40;7.95;;;;;;;9.81;41.77;99567.25;5047543;28;20275;-75
2022/04/04 08:48:58;;;;;;;12.55;7.15;;;;;;;9.95;41.33;99564.34;5045024;28;20679;-77
2022/04/04 08:51:26;;;;;;;14.00;10.68;;;;;;;10.07;41.43;99567.78;5047014;28;20048;-77
2022/04/04 08:53:54;;;;;;;11.85;7.22;;;;;;;10.04;41.47;99568.03;5045171;28;20064;-76
2022/04/04 08:56:23;;;;;;;14.10;10.88;;;;;;;10.19;40.90;99562.47;5044772;28;20052;-77
2022/04/04 08:58:51;;;;;;;11.80;7.38;;;;;;;10.33;40.81;99544.59;5045880;28;20052;-74
2022/04/04 09:01:20;;;;;;;11.18;7.97;;;;;;;10.60;40.51;99548.50;5043720;28;20053;-75
2022/04/04 09:03:52;;;;;;;14.30;8.10;;;;;;;10.82;40.11;99539.63;5045303;28;20051;-76
2022/04/04 09:06:21;;;;;;;12.98;9.48;;;;;;;11.20;39.82;99535.50;5043433;28;20083;-76
2022/04/04 09:08:51;;;;;;;10.65;7.50;;;;;;;11.36;39.49;99529.72;5043536;28;20638;-76
2022/04/04 09:11:18;;;;;;;12.93;5.50;;;;;;;11.31;39.12;99523.13;4993203;28;20041;-76
2022/04/04 09:13:45;;;;;;;9.43;6.07;;;;;;;11.24;39.14;99521.03;5042321;28;20077;-77
2022/04/04 09:16:13;;;;;;;9.45;5.97;;;;;;;11.26;39.22;99523.56;5044908;28;20045;-76
2022/04/04 09:18:49;;;;;;;12.23;6.18;;;;;;;11.09;39.52;99519.72;5043640;28;20063;-76
2022/04/04 09:21:38;;;;;;;9.45;5.75;;;;;;;11.18;39.18;99524.22;5043144;28;20120;-78
2022/04/04 09:24:11;;;;;;;9.20;5.70;;;;;;;11.05;39.00;99520.94;5044485;28;20065;-77
2022/04/04 09:26:41;;;;;;;12.82;6.35;;;;;;;11.37;38.74;99510.22;5047484;28;20056;-75
2022/04/04 09:29:12;;;;;;;9.95;4.93;;;;;;;11.86;38.13;99515.63;5047055;28;20132;-77
2022/04/04 09:31:53;;;;;;;11.65;6.25;;;;;;;12.32;37.48;99513.31;5025611;28;20396;-78
2022/04/04 09:34:20;;;;;;;7.93;5.88;;;;;;;12.31;37.32;99501.03;5027420;28;20091;-74
2022/04/04 09:36:49;;;;;;;8.98;5.72;;;;;;;11.87;37.58;99501.41;5045415;28;20128;-74
2022/04/04 09:39:18;;;;;;;8.82;5.03;;;;;;;11.73;37.82;99497.34;5048974;28;20056;-76
2022/04/04 09:41:45;;;;;;;9.38;5.75;;;;;;;11.75;37.79;99492.75;5045173;28;20599;-75
2022/04/04 09:44:16;;;;;;;7.78;5.63;;;;;;;11.76;37.67;99489.16;5045004;28;20132;-75
2022/04/04 09:46:46;;;;;;;8.48;5.63;;;;;;;11.77;37.42;99474.09;5045315;28;20632;-77
2022/04/04 09:49:16;;;;;;;8.43;5.18;;;;;;;11.80;37.44;99474.66;5024976;28;20700;-75
2022/04/04 09:51:46;;;;;;;7.38;5.13;;;;;;;12.14;36.98;99465.53;5042536;28;20136;-76
2022/04/04 09:54:17;;;;;;;8.82;4.57;;;;;;;12.11;36.92;99471.91;5040855;28;20056;-77
2022/04/04 09:56:45;;;;;;;12.38;7.00;;;;;;;11.80;36.94;99458.78;5042239;28;20053;-75
2022/04/04 09:59:14;;;;;;;8.90;6.20;;;;;;;11.46;37.00;99460.97;5043024;28;20087;-76
2022/04/04 10:01:42;;;;;;;10.55;5.40;;;;;;;11.28;37.45;99458.16;5042463;28;20053;-77
2022/04/04 10:04:12;;;;;;;6.95;3.95;;;;;;;11.20;37.41;99452.69;5050417;28;20620;-75
2022/04/04 10:06:42;;;;;;;7.47;3.95;;;;;;;11.21;37.66;99457.03;5056534;28;20053;-77
2022/04/04 10:09:10;;;;;;;11.77;7.32;;;;;;;11.30;37.76;99461.50;5057156;28;20045;-78
2022/04/04 10:11:44;;;;;;;9.30;5.38;;;;;;;11.25;37.94;99454.00;5058820;28;20048;-78
2022/04/04 10:14:15;;;;;;;9.60;6.65;;;;;;;11.29;38.03;99450.09;5057472;28;20045;-76
2022/04/04 10:16:45;;;;;;;11.27;6.28;;;;;;;11.17;37.63;99439.78;5048115;28;20078;-78
2022/04/04 10:19:14;;;;;;;8.63;4.13;;;;;;;11.15;37.74;99442.56;5046647;28;20128;-75
2022/04/04 10:21:41;;;;;;;6.25;4.93;;;;;;;11.15;37.57;99442.56;5024114;28;20072;-75
2022/04/04 10:24:11;;;;;;;5.00;3.40;;;;;;;11.22;37.32;99433.09;5041980;28;20128;-76
2022/04/04 10:26:40;;;;;;;11.30;5.63;;;;;;;11.34;36.87;99430.34;5041823;28;20044;-76
2022/04/04 10:29:12;;;;;;;7.65;5.90;;;;;;;11.29;37.35;99422.84;5041954;28;20061;-75
2022/04/04 10:31:45;;;;;;;12.50;6.25;;;;;;;11.39;37.57;99412.25;5042811;28;20053;-76
2022/04/04 10:34:21;;;;;;;6.32;5.50;;;;;;;11.46;37.34;99426.59;5042648;28;20076;-74
2022/04/04 10:37:01;;;;;;;10.80;5.95;;;;;;;11.34;37.69;99436.47;5021782;28;20136;-74
2022/04/04 10:39:44;;;;;;;9.68;5.55;;;;;;;11.46;37.67;99414.22;5041005;28;20044;-78
2022/04/04 10:42:31;;;;;;;11.50;7.97;;;;;;;11.50;37.77;99425.34;5041310;28;20045;-77
2022/04/04 10:45:03;;;;;;;8.88;6.65;;;;;;;11.43;37.76;99414.50;5024012;28;20122;-75
2022/04/04 10:47:31;;;;;;;13.25;6.07;;;;;;;11.35;37.97;99413.53;5023908;28;20082;-76
2022/04/04 10:49:59;;;;;;;11.18;6.35;;;;;;;11.20;38.37;99408.63;5042888;28;20045;-77
2022/04/04 10:52:40;;;;;;;10.15;7.43;;;;;;;11.30;38.03;99398.06;5040499;28;20055;-74
2022/04/04 10:55:26;;;;;;;13.40;8.20;;;;;;;11.32;37.78;99404.03;5039530;28;20166;-74
2022/04/04 10:57:59;;;;;;;13.40;7.53;;;;;;;11.13;37.97;99399.56;5027134;28;20064;-75
2022/04/04 11:00:34;;;;;;;12.40;6.68;;;;;;;11.00;38.10;99405.09;5040961;28;20056;-75
2022/04/04 11:03:02;;;;;;;11.35;8.88;;;;;;;10.95;38.78;99398.53;5006835;28;20159;-74
2022/04/04 11:08:31;;;;;;;12.77;8.50;;;;;;;10.94;39.23;99391.59;5042162;28;20051;-75
2022/04/04 11:10:58;;;;;;;10.27;7.80;;;;;;;11.05;38.99;99392.28;5042124;28;20045;-77
2022/04/04 11:13:28;;;;;;;13.38;8.32;;;;;;;11.01;39.18;99382.97;5044675;28;20436;-76
2022/04/04 11:15:55;;;;;;;11.50;7.68;;;;;;;10.90;39.22;99378.63;5026269;28;20082;-77
2022/04/04 11:18:24;;;;;;;19.10;10.65;;;;;;;10.83;39.48;99388.06;5043167;28;20187;-78
2022/04/04 11:20:58;;;;;;;12.07;8.10;;;;;;;10.84;39.30;99379.19;5044998;28;20111;-77
2022/04/04 11:23:30;;;;;;;15.43;8.63;;;;;;;10.52;40.05;99377.53;5026741;28;20056;-77
2022/04/04 11:25:58;;;;;;;15.13;9.93;;;;;;;10.44;40.22;99373.88;5044076;28;20140;-78
2022/04/04 11:28:31;;;;;;;12.38;8.18;;;;;;;10.61;39.95;99360.06;5044076;28;20052;-75
2022/04/04 11:31:07;;;;;;;9.82;8.05;;;;;;;10.92;39.49;99362.66;5043698;28;20041;-75
2022/04/04 11:33:45;;;;;;;14.00;9.23;;;;;;;10.76;39.23;99357.88;5021667;28;20069;-75
2022/04/04 11:36:22;;;;;;;15.98;10.38;;;;;;;10.86;39.19;99353.47;5019530;28;20099;-76
2022/04/04 11:38:51;;;;;;;10.43;7.80;;;;;;;11.12;38.28;99358.25;5020006;28;20071;-74
2022/04/04 11:41:22;;;;;;;15.52;8.73;;;;;;;11.41;38.12;99352.97;5020615;28;20077;-75
2022/04/04 11:43:52;;;;;;;10.07;7.47;;;;;;;11.32;38.36;99332.66;5020646;28;20115;-75
2022/04/04 11:46:22;;;;;;;13.25;7.28;;;;;;;11.37;38.28;99340.19;5021455;28;20782;-77